Latest Coastal Weather Observations for Townsville

IDQ60701

Issued at 2:55 am EST Thursday 24 April 2014 (issued every 10 minutes, with the page automatically refreshed every 10 minutes)

About coastal observations | Map of coastal stations | Coastal observations for QLD | Marine services | Other Formats
Station Details ID: 032040 Name: TOWNSVILLE AERO Lat: -19.25 Lon: 146.77 Height: 4.34 m
Data from the previous 72 hours. | See also: Recent months at Townsville
Date/Time
EST
Temp

°C
Wind Pressure Rain
since 9am
mm
Weather Cloud Vis
km
Sea
Height
m
Swell
Dir
 
Speed
knots
Gust
knots
hPa Trend Height
m
Period
s
Dir
24/02:30am 23.5 SSW 8 10 1011.8 - - - - 10 - - - -
24/02:00am 23.6 SE 5 7 1011.8 - - - - 10 - - - -
24/01:30am 23.9 S 4 6 1012.7 - - - - 10 - - - -
24/01:00am 24.0 SSE 5 6 1012.8 - - - Partly cloudy 10 - - - -
24/12:30am 24.2 SSW 4 6 1013.3 - - - - 10 - - - -
24/12:00am 24.4 S 8 12 1013.4 - - - - 10 - - - -
 
Date/Time
EST
Temp

°C
Wind Pressure Rain
since 9am
mm
Weather Cloud Vis
km
Sea
Height
m
Swell
Dir
 
Speed
knots
Gust
knots
hPa Trend Height
m
Period
s
Dir
23/11:30pm 24.2 SSW 5 7 1014.2 - - - - 10 - - - -
23/11:00pm 24.3 SSW 7 10 1014.2 - - - - 10 - - - -
23/10:30pm 24.1 SSW 6 7 1014.3 - 0.0 - Mostly clear 10 - - - -
23/10:00pm 24.6 S 7 10 1014.3 - - - Mostly clear 10 - - - -
23/09:30pm 24.7 S 8 10 1014.4 - 0.0 - Mostly clear 10 - - - -
23/09:00pm 24.7 SSE 9 12 1014.0 R 0.0 Rain Mostly cloudy 40 - - - -
23/08:30pm 25.0 S 9 11 1014.0 - 0.0 - Mostly clear 10 - - - -
23/08:00pm 25.3 S 13 16 1013.6 - 0.0 - Mostly clear 10 - - - -
23/07:30pm 25.7 S 11 15 1013.4 - - - Partly cloudy 10 - - - -
23/07:00pm 25.9 S 10 14 1013.1 - 0.0 - Mostly clear 10 - - - -
23/06:30pm 26.3 S 9 13 1012.6 - 0.0 - Mostly clear 10 - - - -
23/06:00pm 26.2 S 10 15 1012.0 S 0.0 Fine Mostly cloudy 40 - - - -
23/05:30pm 26.6 S 10 14 1011.9 - 0.0 - Partly cloudy 10 - - - -
23/05:00pm 26.9 SSW 9 14 1011.5 - 0.0 - Partly cloudy 10 - - - -
23/04:30pm 27.6 SSW 5 8 1011.3 - 0.0 - Partly cloudy 10 - - - -
23/04:00pm 27.8 SSE 6 9 1011.0 - 0.0 - Mostly clear 10 - - - -
23/03:30pm 28.3 SSE 8 10 1011.0 - 0.0 - Mostly clear 10 - - - -
23/03:00pm 28.1 S 9 12 1011.2 F 0.0 Fine Mostly cloudy 40 - - - -
23/02:30pm 28.2 S 9 12 1011.6 - - - Partly cloudy 10 - - - -
23/02:00pm 28.1 S 10 13 1011.9 - - - Partly cloudy 10 - - - -
23/01:30pm 29.1 SE 9 13 1012.2 - - - Mostly clear 10 - - - -
23/01:00pm 28.3 SSE 8 14 1012.6 - - - Mostly clear 10 - - - -
23/12:30pm 28.1 SSE 6 10 1013.4 - - - Partly cloudy 10 - - - -
23/12:00pm 28.2 SE 8 10 1013.7 S - Fine Mostly cloudy 30 - - - -
23/11:30am 28.2 SSE 8 14 1014.0 - - - Mostly clear 10 - - - -
23/11:00am 28.1 SSE 10 15 1014.5 - - - Mostly clear 10 - - - -
23/10:30am 28.1 SSE 10 15 1014.8 - 0.0 - Mostly clear 10 - - - -
23/10:00am 27.2 SSE 11 16 1014.9 - 0.0 - Mostly clear 10 - - - -
23/09:30am 26.7 S 9 12 1015.1 - 0.0 - Mostly clear 10 - - - -
23/09:00am 25.9 S 7 10 1014.8 F 0.0 Haze Mostly cloudy 25 - - - -
23/08:30am 24.9 SSW 7 8 1015.0 - 0.0 - Mostly clear 10 - - - -
23/08:00am 24.2 SSW 6 7 1014.8 - 0.0 - Mostly clear 10 - - - -
23/07:30am 23.6 S 5 6 1014.3 - 0.0 - Mostly clear 10 - - - -
23/07:00am 23.1 SSW 5 6 1014.2 - 0.0 - Mostly clear 10 - - - -
23/06:30am 23.0 SSW 5 6 1014.0 - 0.0 - Mostly clear 10 - - - -
23/06:00am 22.4 W 4 5 1013.8 F 0.0 Haze Mostly cloudy 25 - - - -
23/05:30am 22.7 SSW 1 4 1013.4 - 0.0 - Partly cloudy 10 - - - -
23/05:00am 22.3 CALM 0 0 1013.2 - 0.0 - - 10 - - - -
23/04:30am 22.5 SSW 2 4 1013.4 - 0.0 - - 10 - - - -
23/04:00am 22.6 SSW 3 4 1013.6 - 0.0 - Partly cloudy 10 - - - -
23/03:30am 23.0 SSW 5 6 1013.6 - 0.0 - Partly cloudy 10 - - - -
23/03:00am 22.9 SSW 5 7 1013.7 - 0.0 - Partly cloudy 10 - - - -
23/02:30am 22.9 SW 1 4 1014.1 - 0.0 - Partly cloudy 10 - - - -
23/02:00am 22.8 SSW 4 5 1014.3 - 0.0 - Partly cloudy 10 - - - -
23/01:30am 23.1 CALM 0 5 1014.7 - 0.0 - Partly cloudy 10 - - - -
23/01:00am 23.1 W 5 6 1015.0 - 0.0 - Partly cloudy 10 - - - -
23/12:30am 23.2 W 3 5 1015.4 - 0.0 - Partly cloudy 10 - - - -
23/12:00am 23.2 SSE 5 6 1015.3 - 0.0 - Mostly clear 10 - - - -
 
Date/Time
EST
Temp

°C
Wind Pressure Rain
since 9am
mm
Weather Cloud Vis
km
Sea
Height
m
Swell
Dir
 
Speed
knots
Gust
knots
hPa Trend Height
m
Period
s
Dir
22/11:30pm 23.4 S 5 6 1015.6 - 0.0 - - 10 - - - -
22/11:00pm 23.7 CALM 0 0 1015.6 - 0.0 - - 10 - - - -
22/10:30pm 23.4 CALM 0 0 1015.7 - 0.0 - Mostly clear 10 - - - -
22/10:00pm 23.6 CALM 0 0 1015.9 - 0.0 - Mostly clear 10 - - - -
22/09:30pm 23.8 CALM 0 0 1016.2 - 0.0 Rain Mostly clear 10 - - - -
22/09:00pm 24.1 CALM 0 0 1016.0 F 0.0 Distant precip. Mostly cloudy 20 - - - -
22/08:30pm 24.1 SE 3 5 1016.0 - 0.0 - Mostly clear 10 - - - -
22/08:00pm 24.1 SE 5 6 1015.9 - 0.0 - Mostly clear 10 - - - -
22/07:30pm 24.5 SE 5 7 1015.6 - 0.0 Rain Mostly clear 10 - - - -
22/07:00pm 24.6 SE 7 9 1015.4 - 0.0 - Mostly clear 10 - - - -
22/06:30pm 24.7 SE 7 9 1015.2 - 0.0 - Mostly clear 10 - - - -
22/06:00pm 24.8 SE 6 8 1015.2 S 0.0 Fine Mostly cloudy 20 - - - -
22/05:30pm 25.2 SE 8 10 1015.1 - 0.0 - Mostly clear 10 - - - -
22/05:00pm 25.6 SE 8 11 1015.0 - 0.0 - Mostly clear 10 - - - -
22/04:30pm 25.9 ESE 9 12 1014.7 - 0.0 - Mostly clear 10 - - - -
22/04:00pm 25.8 ESE 10 14 1014.6 - 0.0 - Mostly clear 10 - - - -
22/03:30pm 26.1 ESE 13 16 1014.5 - 0.0 Rain Mostly clear 10 - - - -
22/03:00pm 26.3 SE 12 15 1014.4 R 0.0 Distant precip. Mostly cloudy 30 - - - -
22/02:30pm 26.4 ESE 11 15 1014.7 - 0.0 - Mostly clear 10 - - - -
22/02:00pm 26.7 E 11 15 1014.8 - 0.0 - Mostly clear 10 - - - -
22/01:30pm 26.7 SE 9 13 1015.1 - 0.0 - Mostly clear 10 - - - -
22/01:00pm 26.6 SE 9 14 1015.6 - 0.0 - Mostly clear 10 - - - -
22/12:30pm 26.8 SE 9 13 1015.9 - 0.0 - Mostly clear 10 - - - -
22/12:00pm 26.1 ESE 10 14 1016.2 F 0.0 Distant precip. Mostly cloudy 25 - - - -
22/11:30am 25.5 ESE 9 13 1016.7 - 0.0 Rain Mostly clear 10 - - - -
22/11:00am 25.9 ESE 11 16 1016.9 - 0.0 Rain Mostly clear 10 - - - -
22/10:30am 25.9 SE 6 9 1017.3 - 0.0 - Mostly clear 10 - - - -
22/10:00am 25.7 SE 7 10 1017.4 - 0.0 - Mostly clear 10 - - - -
22/09:30am 25.3 SE 7 9 1017.6 - 0.0 - Mostly clear 10 - - - -
22/09:00am 25.0 SE 7 9 1017.5 S 0.0 Haze Mostly cloudy 30 - - - -
22/08:30am 24.6 SSE 6 8 1017.4 - 0.0 - Mostly clear 10 - - - -
22/08:00am 24.1 SSE 7 8 1017.4 - 0.0 - Mostly clear 10 - - - -
22/07:30am 23.5 SSE 7 8 1016.9 - 0.0 - Mostly clear 10 - - - -
22/07:00am 23.1 SSE 6 7 1016.7 - 0.0 - Mostly clear 10 - - - -
22/06:28am 22.4 SSE 2 5 1016.3 - 0.0 - Mostly clear 10 - - - -
22/06:00am 22.7 S 4 5 1015.9 S 0.0 Fine Mostly cloudy 35 - - - -
22/05:30am 23.1 S 5 6 1015.7 - 0.0 - Partly cloudy 10 - - - -
22/05:00am 22.9 S 6 7 1015.6 - 0.0 - Partly cloudy 10 - - - -
22/04:30am 23.6 SE 6 8 1015.5 - 0.0 - Partly cloudy 10 - - - -
22/04:00am 23.9 SE 8 11 1015.5 - 0.0 - Partly cloudy 10 - - - -
22/03:30am 24.1 ESE 9 12 1015.4 - 0.0 - Partly cloudy 10 - - - -
22/03:00am 24.3 ESE 10 14 1015.4 - 0.0 - Mostly clear 10 - - - -
22/02:30am 24.6 SE 8 12 1015.9 - 0.0 - Cloudy 10 - - - -
22/02:00am 24.8 ESE 10 13 1016.0 - 0.0 - Cloudy 10 - - - -
22/01:30am 24.9 ESE 10 13 1016.2 - 0.0 - Cloudy 10 - - - -
22/01:00am 24.9 ESE 8 10 1016.6 - 0.0 - Cloudy 10 - - - -
22/12:30am 25.0 ESE 8 11 1016.7 - 0.0 - Cloudy 10 - - - -
22/12:00am 25.0 ESE 8 12 1016.7 - 0.0 - Cloudy 10 - - - -
 
Date/Time
EST
Temp

°C
Wind Pressure Rain
since 9am
mm
Weather Cloud Vis
km
Sea
Height
m
Swell
Dir
 
Speed
knots
Gust
knots
hPa Trend Height
m
Period
s
Dir
21/11:30pm 25.0 SE 7 9 1017.0 - 0.0 - Partly cloudy 10 - - - -
21/11:00pm 25.1 ESE 9 13 1017.0 - 0.0 - Cloudy 10 - - - -
21/10:30pm 25.2 ESE 9 12 1017.2 - 0.0 - Mostly clear 10 - - - -
21/10:00pm 25.2 ESE 9 13 1017.1 - 0.0 - Mostly clear 10 - - - -
21/09:30pm 25.1 ESE 7 10 1017.1 - 0.0 - Mostly clear 10 - - - -
21/09:00pm 25.1 SE 8 11 1016.9 F 0.0 Fine Mostly cloudy 35 - - - -
21/08:30pm 25.3 SE 9 12 1017.1 - 0.0 - Mostly clear 10 - - - -
21/08:00pm 25.5 ESE 9 13 1016.9 - 0.0 - Mostly clear 10 - - - -
21/07:30pm 25.8 ESE 11 15 1016.6 - 0.0 - Mostly clear 10 - - - -
21/07:00pm 25.8 E 12 18 1016.4 - 0.0 - Mostly clear 10 - - - -
21/06:30pm 25.8 E 11 16 1016.2 - 0.0 - Mostly clear 10 - - - -
21/06:00pm 25.8 ESE 12 17 1015.9 R 0.0 Distant precip. Mostly cloudy 40 - - - -
21/05:30pm 26.2 ESE 11 16 1015.6 - 0.0 - Mostly clear 10 - - - -
21/05:00pm 26.3 E 11 17 1015.4 - 0.0 - Mostly clear 10 - - - -
21/04:30pm 26.4 E 15 19 1015.1 - 0.0 - Mostly clear 10 - - - -
21/04:00pm 26.9 E 15 19 1014.9 - 0.0 - Mostly clear 10 - - - -
21/03:30pm 27.7 E 16 20 1014.7 - 0.0 - Mostly clear 10 - - - -
21/03:00pm 27.7 ESE 14 19 1014.4 R 0.0 Distant precip. Mostly cloudy 40 - - - -
21/02:30pm 27.2 E 13 17 1014.8 - 0.0 - Mostly clear 10 - - - -
21/02:00pm 27.1 E 12 17 1015.0 - 0.0 - Mostly clear 10 - - - -
21/01:30pm 27.2 E 12 16 1015.3 - 0.0 - Mostly clear 10 - - - -
21/01:00pm 27.0 E 11 17 1015.6 - 0.0 - Mostly clear 10 - - - -
21/12:30pm 26.7 E 14 17 1015.8 - 0.0 - Mostly clear 10 - - - -
21/12:00pm 28.5 ENE 17 22 1015.9 S 0.0 Distant precip. Mostly cloudy 35 - - - -
21/11:30am 28.0 E 15 21 1016.4 - 0.0 - Partly cloudy 10 - - - -
21/11:00am 27.7 ESE 12 18 1016.9 - 0.0 - Mostly clear 10 - - - -
21/10:30am 27.1 ESE 13 17 1017.1 - 0.0 - Mostly clear 10 - - - -
21/10:00am 26.8 ESE 11 16 1017.2 - 0.0 - Mostly clear 10 - - - -
21/09:30am 26.5 ESE 13 18 1017.0 - 0.0 - Mostly clear 10 - - - -
21/09:00am 25.6 SE 8 11 1017.0 F 0.0 Fine Mostly clear 40 - - - -
21/08:30am 24.9 SE 8 10 1016.9 - 0.0 - Mostly clear 10 - - - -
21/08:00am 24.0 SSE 8 12 1016.7 - 0.0 - Mostly clear 10 - - - -
21/07:30am 22.7 SSE 6 8 1016.5 - 0.0 - Mostly clear 10 - - - -
21/07:00am 21.0 S 7 7 1016.4 - 0.0 - Mostly clear 10 - - - -
21/06:30am 20.0 S 6 7 1016.1 - 0.0 - Mostly clear 10 - - - -
21/06:00am 20.0 S 6 6 1015.6 R 0.0 Fine Mostly clear 40 - - - -
21/05:30am 20.0 S 7 7 1015.5 - 0.0 - - 10 - - - -
21/05:00am 20.4 S 7 7 1015.5 - 0.0 - - 10 - - - -
21/04:30am 20.4 S 6 7 1015.4 - 0.0 - - 10 - - - -
21/04:00am 20.7 WSW 5 6 1015.4 - 0.0 - - 10 - - - -
21/03:30am 21.1 SSE 4 5 1015.2 - 0.0 - - 10 - - - -
21/03:00am 20.8 SSE 5 6 1015.0 - 0.0 - - 10 - - - -

Other Formats:

Comma delimited format used in spreadsheet applications
http://www.bom.gov.au/fwo/IDQ60701/IDQ60701.94294.axf

JavaScript Object Notation format (JSON) in row-major order
http://www.bom.gov.au/fwo/IDQ60701/IDQ60701.94294.json